Terminal Aerodrome Forecast
Issued by NWS Huntsville, AL

Home | Current Version | Previous Version | Text Only | Print | Product List | Glossary On
Versions: 1 2 3 4 5 6 7 8 9 10 11 12 13 14 15 16 17 18 19 20 21 22 23 24 25 26 27 28 29 30 31 32 33 34 35 36 37 38 39
000
FTUS44 KHUN 051125
TAFHSV
TAF
KHSV 051125Z 0512/0612 36015G25KT 5SM FZRA BR OVC009
     FM051600 36013G22KT 5SM -PLSN OVC009
      TEMPO 0516/0518 2SM -PLSN OVC007
     FM052000 36012G18KT P6SM OVC020
     FM060800 36010KT P6SM OVC050=

USA.gov is the U.S. government's official web portal to all federal, state and local government web resources and services.